createdAt,value
2022-12-29T00:01:09.377Z,10.05
2022-12-29T00:04:15.146Z,10.18
2022-12-29T00:07:18.523Z,11.30
2022-12-29T00:10:21.046Z,10.55
2022-12-29T00:13:41.640Z,10.13
2022-12-29T00:16:45.896Z,10.70
2022-12-29T00:20:06.756Z,10.57
2022-12-29T00:23:28.809Z,11.00
2022-12-29T00:26:49.680Z,10.90
2022-12-29T00:30:11.078Z,10.35
2022-12-29T00:33:36.965Z,8.95
2022-12-29T00:36:43.289Z,10.80
2022-12-29T00:40:04.258Z,10.45
2022-12-29T00:43:25.695Z,9.98
2022-12-29T00:46:27.950Z,10.40
2022-12-29T00:49:31.848Z,12.07
2022-12-29T00:52:34.050Z,11.55
2022-12-29T00:55:40.059Z,11.93
2022-12-29T00:58:42.376Z,11.18
2022-12-29T01:01:45.046Z,11.55
2022-12-29T01:04:47.416Z,10.68
2022-12-29T01:07:50.602Z,10.27
2022-12-29T01:11:00.732Z,10.32
2022-12-29T01:14:03.792Z,10.73
2022-12-29T01:17:06.657Z,10.27
2022-12-29T01:20:11.736Z,11.27
2022-12-29T01:23:14.158Z,10.23
2022-12-29T01:26:17.899Z,11.50
2022-12-29T01:29:20.381Z,11.18
2022-12-29T01:32:22.935Z,10.65
2022-12-29T01:35:25.121Z,11.12
2022-12-29T01:38:27.571Z,10.25
2022-12-29T01:41:30.007Z,10.25
2022-12-29T01:44:52.727Z,10.55
2022-12-29T01:48:00.152Z,11.07
2022-12-29T01:51:02.803Z,10.50
2022-12-29T01:54:14.703Z,10.80
2022-12-29T01:57:22.313Z,10.95
2022-12-29T02:00:24.515Z,10.98
2022-12-29T02:03:29.834Z,10.35
2022-12-29T02:06:46.179Z,10.13
2022-12-29T02:09:52.739Z,9.95
2022-12-29T02:12:55.171Z,8.90
2022-12-29T02:16:26.965Z,10.70
2022-12-29T02:19:38.940Z,10.07
2022-12-29T02:22:47.616Z,10.00
2022-12-29T02:26:08.752Z,9.53
2022-12-29T02:29:36.180Z,9.98
2022-12-29T02:32:53.605Z,9.75
2022-12-29T02:36:50.587Z,9.77
2022-12-29T02:40:25.070Z,9.98
2022-12-29T02:43:34.362Z,10.35
2022-12-29T02:46:42.657Z,9.82
2022-12-29T02:49:54.623Z,10.43
2022-12-29T02:53:03.060Z,9.93
2022-12-29T02:56:05.735Z,9.25
2022-12-29T02:59:08.842Z,11.45
2022-12-29T03:02:40.271Z,10.20
2022-12-29T03:05:54.781Z,11.10
2022-12-29T03:09:19.493Z,10.65
2022-12-29T03:12:50.853Z,10.75
2022-12-29T03:16:08.121Z,11.20
2022-12-29T03:19:22.775Z,11.90
2022-12-29T03:22:33.480Z,9.77
2022-12-29T03:25:40.822Z,10.30
2022-12-29T03:28:52.079Z,9.23
2022-12-29T03:31:56.067Z,10.05
2022-12-29T03:34:59.929Z,8.25
2022-12-29T03:38:28.707Z,10.18
2022-12-29T03:41:34.012Z,10.85
2022-12-29T03:44:41.028Z,10.23
2022-12-29T03:47:44.264Z,9.93
2022-12-29T03:50:47.153Z,9.85
2022-12-29T03:53:50.348Z,9.93
2022-12-29T03:56:52.644Z,8.43
2022-12-29T03:59:55.746Z,9.73
2022-12-29T04:02:58.142Z,9.60
2022-12-29T04:06:01.009Z,8.93
2022-12-29T04:09:03.961Z,10.52
2022-12-29T04:12:08.309Z,9.65
2022-12-29T04:15:10.952Z,8.95
2022-12-29T04:18:13.894Z,9.63
2022-12-29T04:21:16.141Z,9.43
2022-12-29T04:24:20.888Z,10.18
2022-12-29T04:27:24.227Z,9.07
2022-12-29T04:30:27.751Z,9.68
2022-12-29T04:33:30.814Z,9.55
2022-12-29T04:36:33.918Z,9.95
2022-12-29T04:39:36.889Z,9.30
2022-12-29T04:42:39.647Z,9.90
2022-12-29T04:45:47.125Z,9.80
2022-12-29T04:48:50.201Z,9.77
2022-12-29T04:51:53.536Z,10.57
2022-12-29T04:54:56.127Z,11.35
2022-12-29T04:57:58.543Z,10.65
2022-12-29T05:01:01.638Z,11.20
2022-12-29T05:04:04.740Z,11.00
2022-12-29T05:07:08.226Z,11.60
2022-12-29T05:10:11.616Z,12.80
2022-12-29T05:13:14.295Z,12.48
2022-12-29T05:16:18.404Z,11.27
2022-12-29T05:19:21.488Z,10.30
2022-12-29T05:22:23.866Z,11.02
2022-12-29T05:25:26.928Z,11.43
2022-12-29T05:28:29.496Z,11.35
2022-12-29T05:31:32.644Z,10.95
2022-12-29T05:34:35.005Z,11.55
2022-12-29T05:37:37.572Z,10.45
2022-12-29T05:40:39.880Z,11.18
2022-12-29T05:43:42.963Z,10.23
2022-12-29T05:46:46.011Z,11.20
2022-12-29T05:49:50.424Z,11.07
2022-12-29T05:52:53.445Z,11.73
2022-12-29T05:55:56.353Z,10.82
2022-12-29T05:58:58.731Z,10.90
2022-12-29T06:02:01.923Z,12.32
2022-12-29T06:05:05.565Z,10.95
2022-12-29T06:08:08.437Z,12.20
2022-12-29T06:11:11.218Z,12.45
2022-12-29T06:14:16.765Z,11.18
2022-12-29T06:17:19.729Z,12.65
2022-12-29T06:20:22.193Z,11.70
2022-12-29T06:23:24.866Z,12.52
2022-12-29T06:26:27.230Z,11.55
2022-12-29T06:29:29.964Z,12.80
2022-12-29T06:32:32.988Z,10.57
2022-12-29T06:35:35.981Z,11.35
2022-12-29T06:38:38.550Z,13.23
2022-12-29T06:41:41.260Z,11.32
2022-12-29T06:44:44.335Z,11.77
2022-12-29T06:47:47.826Z,12.25
2022-12-29T06:50:50.250Z,12.25
2022-12-29T06:53:53.289Z,12.50
2022-12-29T06:56:55.696Z,11.63
2022-12-29T06:59:59.036Z,12.15
2022-12-29T07:03:01.585Z,11.98
2022-12-29T07:06:04.948Z,14.07
2022-12-29T07:09:08.262Z,13.23
2022-12-29T07:12:11.294Z,13.85
2022-12-29T07:15:13.915Z,12.37
2022-12-29T07:18:16.835Z,13.43
2022-12-29T07:21:20.051Z,12.82
2022-12-29T07:24:23.465Z,12.35
2022-12-29T07:27:26.250Z,13.30
2022-12-29T07:30:30.954Z,13.73
2022-12-29T07:33:34.660Z,11.68
2022-12-29T07:36:37.477Z,13.25
2022-12-29T07:39:39.773Z,13.55
2022-12-29T07:42:43.949Z,12.95
2022-12-29T07:45:48.939Z,13.57
2022-12-29T07:48:53.130Z,13.77
2022-12-29T07:51:56.547Z,13.32
2022-12-29T07:55:00.044Z,13.80
2022-12-29T07:58:03.530Z,13.88
2022-12-29T08:01:06.601Z,15.02
2022-12-29T08:04:11.029Z,13.77
2022-12-29T08:07:13.458Z,13.88
2022-12-29T08:10:17.263Z,12.98
2022-12-29T08:13:19.671Z,14.13
2022-12-29T08:16:22.269Z,15.05
2022-12-29T08:19:24.531Z,15.85
2022-12-29T08:22:29.396Z,14.45
2022-12-29T08:25:31.658Z,15.48
2022-12-29T08:28:34.242Z,14.82
2022-12-29T08:31:36.625Z,14.57
2022-12-29T08:34:39.360Z,15.18
2022-12-29T08:37:41.581Z,15.40
2022-12-29T08:40:44.095Z,14.38
2022-12-29T08:43:50.388Z,16.27
2022-12-29T08:46:53.620Z,14.73
2022-12-29T08:49:56.096Z,16.80
2022-12-29T08:52:59.143Z,16.10
2022-12-29T08:56:05.431Z,14.70
2022-12-29T08:59:10.274Z,14.68
2022-12-29T09:02:17.474Z,15.98
2022-12-29T09:05:22.906Z,17.02
2022-12-29T09:08:27.114Z,15.30
2022-12-29T09:11:29.592Z,16.80
2022-12-29T09:14:31.739Z,15.88
2022-12-29T09:17:46.558Z,17.00
2022-12-29T09:20:48.704Z,16.37
2022-12-29T09:23:51.135Z,16.87
2022-12-29T09:26:53.315Z,16.15
2022-12-29T09:29:55.801Z,16.73
2022-12-29T09:32:58.006Z,15.70
2022-12-29T09:36:00.426Z,17.65
2022-12-29T09:39:02.681Z,15.25
2022-12-29T09:42:13.192Z,16.83
2022-12-29T09:45:21.117Z,17.45
2022-12-29T09:48:30.322Z,16.30
2022-12-29T09:51:34.547Z,18.20
2022-12-29T09:55:14.311Z,18.08
2022-12-29T09:58:45.759Z,16.60
2022-12-29T10:02:29.571Z,17.45
2022-12-29T10:05:37.978Z,17.20
2022-12-29T10:08:48.657Z,15.07
2022-12-29T10:11:56.992Z,18.23
2022-12-29T10:15:39.089Z,16.27
2022-12-29T10:18:47.666Z,16.08
2022-12-29T10:22:04.734Z,17.83
2022-12-29T10:25:18.683Z,18.33
2022-12-29T10:28:34.673Z,16.95
2022-12-29T10:31:43.902Z,17.42
2022-12-29T10:34:50.891Z,18.35
2022-12-29T10:38:05.310Z,18.27
2022-12-29T10:41:17.699Z,18.48
2022-12-29T10:44:21.531Z,18.85
2022-12-29T10:47:32.370Z,18.75
2022-12-29T10:50:34.960Z,19.27
2022-12-29T10:53:46.339Z,18.98
2022-12-29T10:56:55.363Z,17.65
2022-12-29T10:59:58.736Z,20.45
2022-12-29T11:03:19.999Z,19.15
2022-12-29T11:06:27.964Z,18.58
2022-12-29T11:09:42.441Z,17.90
2022-12-29T11:13:00.493Z,18.58
2022-12-29T11:16:03.953Z,18.12
2022-12-29T11:19:06.238Z,18.12
2022-12-29T11:22:28.632Z,19.50
2022-12-29T11:25:30.936Z,18.37
2022-12-29T11:28:34.292Z,19.08
2022-12-29T11:31:43.119Z,18.50
2022-12-29T11:37:59.391Z,19.05
2022-12-29T11:41:03.272Z,19.23
2022-12-29T11:44:06.899Z,19.20
2022-12-29T11:47:13.441Z,17.83
2022-12-29T11:50:21.463Z,21.20
2022-12-29T11:53:41.006Z,19.67
2022-12-29T11:56:44.664Z,19.80
2022-12-29T11:59:56.231Z,21.90
2022-12-29T12:03:05.247Z,20.23
2022-12-29T12:06:13.648Z,18.58
2022-12-29T12:09:23.917Z,18.67
2022-12-29T12:12:35.594Z,19.37
2022-12-29T12:15:46.734Z,20.83
2022-12-29T12:19:12.551Z,20.77
2022-12-29T12:22:22.991Z,20.88
2022-12-29T12:25:51.207Z,21.20
2022-12-29T12:28:58.663Z,20.98
2022-12-29T12:32:15.020Z,20.23
2022-12-29T12:35:44.561Z,20.45
2022-12-29T12:38:55.564Z,21.52
2022-12-29T12:42:00.673Z,21.10
2022-12-29T12:45:48.355Z,22.02
2022-12-29T12:49:40.017Z,21.05
2022-12-29T12:53:20.793Z,21.52
2022-12-29T12:56:28.847Z,21.70
2022-12-29T12:59:43.082Z,20.55
2022-12-29T13:03:16.802Z,21.75
2022-12-29T13:06:27.802Z,20.65
2022-12-29T13:09:40.042Z,21.02
2022-12-29T13:12:55.085Z,20.62
2022-12-29T13:16:10.805Z,21.95
2022-12-29T13:19:42.366Z,21.10
2022-12-29T13:22:57.535Z,21.42
2022-12-29T13:26:06.021Z,21.52
2022-12-29T13:29:32.345Z,22.80
2022-12-29T13:33:04.263Z,20.58
2022-12-29T13:36:18.074Z,21.12
2022-12-29T13:39:26.133Z,21.08
2022-12-29T13:42:30.582Z,20.50
2022-12-29T13:45:35.226Z,21.23
2022-12-29T13:48:48.476Z,20.75
2022-12-29T13:51:56.584Z,22.37
2022-12-29T13:55:13.733Z,22.60
2022-12-29T13:58:40.559Z,20.98
2022-12-29T14:01:52.057Z,21.15
2022-12-29T14:05:03.647Z,21.55
2022-12-29T14:08:07.188Z,21.87
2022-12-29T14:11:16.708Z,20.55
2022-12-29T14:17:25.735Z,21.98
2022-12-29T14:20:28.055Z,22.48
2022-12-29T14:23:42.828Z,22.37
2022-12-29T14:26:45.040Z,21.83
2022-12-29T14:29:51.565Z,21.60
2022-12-29T14:33:12.966Z,22.20
2022-12-29T14:36:35.225Z,21.02
2022-12-29T14:39:46.562Z,22.95
2022-12-29T14:42:54.213Z,21.65
2022-12-29T14:46:00.080Z,23.27
2022-12-29T14:49:03.306Z,22.15
2022-12-29T14:52:20.796Z,20.85
2022-12-29T14:55:40.789Z,21.12
2022-12-29T15:01:54.214Z,19.80
2022-12-29T15:05:00.866Z,20.25
2022-12-29T15:08:04.993Z,21.40
2022-12-29T15:11:16.363Z,20.52
2022-12-29T15:14:55.899Z,20.92
2022-12-29T15:17:58.055Z,21.40
2022-12-29T15:21:07.456Z,20.85
2022-12-29T15:27:16.460Z,20.98
2022-12-29T15:30:18.779Z,21.87
2022-12-29T15:33:23.855Z,20.12
2022-12-29T15:36:30.408Z,21.40
2022-12-29T15:39:32.869Z,21.75
2022-12-29T15:42:47.119Z,21.73
2022-12-29T15:45:51.727Z,22.27
2022-12-29T15:48:53.971Z,19.90
2022-12-29T15:51:56.464Z,21.23
2022-12-29T15:54:59.822Z,19.23
2022-12-29T15:58:05.661Z,20.88
2022-12-29T16:01:18.008Z,19.05
2022-12-29T16:04:20.975Z,22.50
2022-12-29T16:07:33.230Z,19.10
2022-12-29T16:10:42.179Z,22.08
2022-12-29T16:13:45.623Z,20.75
2022-12-29T16:16:50.519Z,21.92
2022-12-29T16:19:59.145Z,19.73
2022-12-29T16:23:01.673Z,21.37
2022-12-29T16:26:05.025Z,21.08
2022-12-29T16:29:09.274Z,19.30
2022-12-29T16:32:29.026Z,20.60
2022-12-29T16:35:48.213Z,20.73
2022-12-29T16:38:50.428Z,23.73
2022-12-29T16:41:54.280Z,22.05
2022-12-29T16:45:23.417Z,20.77
2022-12-29T16:48:31.749Z,20.80
2022-12-29T16:51:37.498Z,21.75
2022-12-29T16:54:41.407Z,22.40
2022-12-29T16:57:45.226Z,21.48
2022-12-29T17:00:48.284Z,21.95
2022-12-29T17:03:54.333Z,21.30
2022-12-29T17:06:56.766Z,21.42
2022-12-29T17:09:58.866Z,22.92
2022-12-29T17:13:01.372Z,24.10
2022-12-29T17:16:04.672Z,21.37
2022-12-29T17:19:13.477Z,21.92
2022-12-29T17:22:27.693Z,20.52
2022-12-29T17:25:34.922Z,23.50
2022-12-29T17:28:37.129Z,22.67
2022-12-29T17:31:39.655Z,24.40
2022-12-29T17:34:42.072Z,23.48
2022-12-29T17:37:44.772Z,24.12
2022-12-29T17:40:47.388Z,22.48
2022-12-29T17:43:49.836Z,23.35
2022-12-29T17:46:52.019Z,22.80
2022-12-29T17:49:55.248Z,25.60
2022-12-29T17:53:00.964Z,24.37
2022-12-29T17:56:03.903Z,25.65
2022-12-29T17:59:12.473Z,23.95
2022-12-29T18:02:26.630Z,21.25
2022-12-29T18:05:30.781Z,24.77
2022-12-29T18:08:34.585Z,24.00
2022-12-29T18:11:40.328Z,23.15
2022-12-29T18:14:42.443Z,21.45
2022-12-29T18:17:45.002Z,23.08
2022-12-29T18:20:48.685Z,22.33
2022-12-29T18:23:51.459Z,20.45
2022-12-29T18:26:53.587Z,22.65
2022-12-29T18:29:56.133Z,21.85
2022-12-29T18:32:58.359Z,21.77
2022-12-29T18:36:02.965Z,18.02
2022-12-29T18:39:05.162Z,22.52
2022-12-29T18:42:07.890Z,22.20
2022-12-29T18:45:22.416Z,21.95
2022-12-29T18:48:24.828Z,22.37
2022-12-29T18:51:27.008Z,22.27
2022-12-29T18:54:32.377Z,22.60
2022-12-29T18:57:34.514Z,21.77
2022-12-29T19:00:37.021Z,21.12
2022-12-29T19:03:39.274Z,21.12
2022-12-29T19:06:42.589Z,22.02
2022-12-29T19:09:44.720Z,20.17
2022-12-29T19:12:47.660Z,22.52
2022-12-29T19:15:49.940Z,19.85
2022-12-29T19:19:08.510Z,20.12
2022-12-29T19:22:11.704Z,19.00
2022-12-29T19:25:14.250Z,19.67
2022-12-29T19:28:22.866Z,19.95
2022-12-29T19:31:25.407Z,21.23
2022-12-29T19:34:27.617Z,19.45
2022-12-29T19:37:30.061Z,19.62
2022-12-29T19:40:33.043Z,18.45
2022-12-29T19:43:35.521Z,20.40
2022-12-29T19:46:37.664Z,21.27
2022-12-29T19:49:40.149Z,19.25
2022-12-29T19:52:43.523Z,21.87
2022-12-29T19:55:47.202Z,21.15
2022-12-29T19:58:50.560Z,19.87
2022-12-29T20:01:53.203Z,18.37
2022-12-29T20:04:56.579Z,17.65
2022-12-29T20:07:58.704Z,19.58
2022-12-29T20:11:19.378Z,19.40
2022-12-29T20:14:21.620Z,18.70
2022-12-29T20:17:54.000Z,18.95
2022-12-29T20:20:47.367Z,18.25
2022-12-29T20:23:52.120Z,18.77
2022-12-29T20:26:54.593Z,19.08
2022-12-29T20:29:59.104Z,17.50
2022-12-29T20:33:07.589Z,16.08
2022-12-29T20:36:15.431Z,18.42
2022-12-29T20:39:19.723Z,18.45
2022-12-29T20:42:22.166Z,18.92
2022-12-29T20:45:24.460Z,18.48
2022-12-29T20:48:27.545Z,18.55
2022-12-29T20:51:59.199Z,19.37
2022-12-29T20:54:52.767Z,18.40
2022-12-29T20:58:22.989Z,18.83
2022-12-29T21:01:19.655Z,19.62
2022-12-29T21:04:21.840Z,20.52
2022-12-29T21:07:24.335Z,18.20
2022-12-29T21:10:26.567Z,18.83
2022-12-29T21:13:29.390Z,19.65
2022-12-29T21:16:31.716Z,19.50
2022-12-29T21:19:34.216Z,17.80
2022-12-29T21:22:36.370Z,19.05
2022-12-29T21:25:43.708Z,17.52
2022-12-29T21:28:47.129Z,19.12
2022-12-29T21:31:49.687Z,18.50
2022-12-29T21:34:51.893Z,19.20
2022-12-29T21:37:54.346Z,20.65
2022-12-29T21:40:58.751Z,17.55
2022-12-29T21:44:20.063Z,18.87
2022-12-29T21:47:22.239Z,19.52
2022-12-29T21:50:24.682Z,18.17
2022-12-29T21:53:37.881Z,18.27
2022-12-29T21:56:43.872Z,18.92
2022-12-29T22:00:04.454Z,17.50
2022-12-29T22:03:30.948Z,18.25
2022-12-29T22:06:51.863Z,17.50
2022-12-29T22:10:12.660Z,17.55
2022-12-29T22:13:15.069Z,16.17
2022-12-29T22:16:18.225Z,16.45
2022-12-29T22:19:20.870Z,16.60
2022-12-29T22:22:23.018Z,17.83
2022-12-29T22:25:25.434Z,17.92
2022-12-29T22:28:27.595Z,16.50
2022-12-29T22:31:30.752Z,17.25
2022-12-29T22:34:33.187Z,17.77
2022-12-29T22:37:37.403Z,18.17
2022-12-29T22:40:39.542Z,18.75
2022-12-29T22:43:42.109Z,18.85
2022-12-29T22:46:44.248Z,19.45
2022-12-29T22:49:46.719Z,19.30
2022-12-29T22:52:49.339Z,19.05
2022-12-29T22:56:01.329Z,18.30
2022-12-29T22:59:03.685Z,18.67
2022-12-29T23:02:06.199Z,19.83
2022-12-29T23:05:08.985Z,18.45
2022-12-29T23:08:11.496Z,18.92
2022-12-29T23:11:14.239Z,19.30
2022-12-29T23:14:17.386Z,19.30
2022-12-29T23:17:19.534Z,19.48
2022-12-29T23:20:21.933Z,17.90
2022-12-29T23:23:48.738Z,20.05
2022-12-29T23:26:51.915Z,18.83
2022-12-29T23:29:54.044Z,18.45
2022-12-29T23:32:56.630Z,18.20
2022-12-29T23:35:58.783Z,19.20
2022-12-29T23:39:01.523Z,18.98
2022-12-29T23:42:03.815Z,18.45
2022-12-29T23:45:06.907Z,19.83
2022-12-29T23:48:09.078Z,17.98
2022-12-29T23:51:11.810Z,18.27
2022-12-29T23:54:16.672Z,19.95
2022-12-29T23:57:19.174Z,19.50
